sensor_id;sensor_type;location;lat;lon;timestamp;P1;durP1;ratioP1;P2;durP2;ratioP2
787;SDS011;16074;42.708;23.312;2022-09-17T00:01:26;8.00;;;6.77;;
787;SDS011;16074;42.708;23.312;2022-09-17T00:03:58;4.37;;;4.07;;
787;SDS011;16074;42.708;23.312;2022-09-17T00:06:30;4.90;;;4.50;;
787;SDS011;16074;42.708;23.312;2022-09-17T00:09:01;5.83;;;5.33;;
787;SDS011;16074;42.708;23.312;2022-09-17T00:11:32;5.47;;;4.97;;
787;SDS011;16074;42.708;23.312;2022-09-17T00:14:03;5.10;;;4.57;;
787;SDS011;16074;42.708;23.312;2022-09-17T00:16:35;5.47;;;5.07;;
787;SDS011;16074;42.708;23.312;2022-09-17T00:19:07;4.90;;;4.50;;
787;SDS011;16074;42.708;23.312;2022-09-17T00:21:39;4.93;;;4.50;;
787;SDS011;16074;42.708;23.312;2022-09-17T00:24:09;4.87;;;4.57;;
787;SDS011;16074;42.708;23.312;2022-09-17T00:26:38;4.80;;;4.40;;
787;SDS011;16074;42.708;23.312;2022-09-17T00:29:06;4.50;;;4.20;;
787;SDS011;16074;42.708;23.312;2022-09-17T00:31:34;5.47;;;5.07;;
787;SDS011;16074;42.708;23.312;2022-09-17T00:34:03;5.00;;;4.50;;
787;SDS011;16074;42.708;23.312;2022-09-17T00:36:34;7.10;;;4.73;;
787;SDS011;16074;42.708;23.312;2022-09-17T00:39:03;6.27;;;5.70;;
787;SDS011;16074;42.708;23.312;2022-09-17T00:41:33;5.40;;;4.10;;
787;SDS011;16074;42.708;23.312;2022-09-17T00:47:03;4.70;;;4.27;;
787;SDS011;16074;42.708;23.312;2022-09-17T00:49:33;5.33;;;4.83;;
787;SDS011;16074;42.708;23.312;2022-09-17T00:52:03;4.90;;;4.50;;
787;SDS011;16074;42.708;23.312;2022-09-17T00:54:35;4.27;;;3.97;;
787;SDS011;16074;42.708;23.312;2022-09-17T00:57:05;4.47;;;4.17;;
787;SDS011;16074;42.708;23.312;2022-09-17T00:59:33;4.20;;;3.90;;
787;SDS011;16074;42.708;23.312;2022-09-17T01:02:03;4.67;;;4.20;;
787;SDS011;16074;42.708;23.312;2022-09-17T01:04:33;3.60;;;3.30;;
787;SDS011;16074;42.708;23.312;2022-09-17T01:07:10;4.77;;;3.40;;
787;SDS011;16074;42.708;23.312;2022-09-17T01:09:55;4.20;;;3.83;;
787;SDS011;16074;42.708;23.312;2022-09-17T01:12:35;4.97;;;4.47;;
787;SDS011;16074;42.708;23.312;2022-09-17T01:15:16;6.33;;;3.93;;
787;SDS011;16074;42.708;23.312;2022-09-17T01:17:54;3.93;;;3.63;;
787;SDS011;16074;42.708;23.312;2022-09-17T01:20:42;4.30;;;4.00;;
787;SDS011;16074;42.708;23.312;2022-09-17T01:23:31;3.73;;;3.43;;
787;SDS011;16074;42.708;23.312;2022-09-17T01:26:21;3.93;;;3.70;;
787;SDS011;16074;42.708;23.312;2022-09-17T01:29:05;4.03;;;3.60;;
787;SDS011;16074;42.708;23.312;2022-09-17T01:31:44;3.90;;;3.60;;
787;SDS011;16074;42.708;23.312;2022-09-17T01:34:19;4.00;;;3.30;;
787;SDS011;16074;42.708;23.312;2022-09-17T01:36:56;3.80;;;3.50;;
787;SDS011;16074;42.708;23.312;2022-09-17T01:39:33;3.97;;;3.67;;
787;SDS011;16074;42.708;23.312;2022-09-17T01:42:14;3.90;;;3.60;;
787;SDS011;16074;42.708;23.312;2022-09-17T01:44:49;4.70;;;3.50;;
787;SDS011;16074;42.708;23.312;2022-09-17T01:47:25;4.40;;;4.10;;
787;SDS011;16074;42.708;23.312;2022-09-17T01:49:59;3.90;;;3.60;;
787;SDS011;16074;42.708;23.312;2022-09-17T01:52:30;4.47;;;4.17;;
787;SDS011;16074;42.708;23.312;2022-09-17T01:55:01;4.87;;;3.57;;
787;SDS011;16074;42.708;23.312;2022-09-17T01:57:33;5.03;;;3.20;;
787;SDS011;16074;42.708;23.312;2022-09-17T02:00:06;3.80;;;3.47;;
787;SDS011;16074;42.708;23.312;2022-09-17T02:02:39;3.90;;;3.60;;
787;SDS011;16074;42.708;23.312;2022-09-17T02:05:13;4.60;;;4.20;;
787;SDS011;16074;42.708;23.312;2022-09-17T02:07:48;5.07;;;4.40;;
787;SDS011;16074;42.708;23.312;2022-09-17T02:10:23;4.30;;;4.00;;
787;SDS011;16074;42.708;23.312;2022-09-17T02:12:57;5.17;;;3.63;;
787;SDS011;16074;42.708;23.312;2022-09-17T02:15:30;3.77;;;3.47;;
787;SDS011;16074;42.708;23.312;2022-09-17T02:18:05;4.87;;;4.10;;
787;SDS011;16074;42.708;23.312;2022-09-17T02:20:38;8.07;;;3.93;;
787;SDS011;16074;42.708;23.312;2022-09-17T02:23:11;4.20;;;3.80;;
787;SDS011;16074;42.708;23.312;2022-09-17T02:25:46;4.13;;;3.77;;
787;SDS011;16074;42.708;23.312;2022-09-17T02:28:20;4.27;;;3.90;;
787;SDS011;16074;42.708;23.312;2022-09-17T02:30:54;4.03;;;3.73;;
787;SDS011;16074;42.708;23.312;2022-09-17T02:33:24;4.10;;;3.80;;
787;SDS011;16074;42.708;23.312;2022-09-17T02:35:54;3.83;;;3.53;;
787;SDS011;16074;42.708;23.312;2022-09-17T02:38:24;4.70;;;4.40;;
787;SDS011;16074;42.708;23.312;2022-09-17T02:40:57;4.50;;;4.13;;
787;SDS011;16074;42.708;23.312;2022-09-17T02:43:34;6.40;;;5.90;;
787;SDS011;16074;42.708;23.312;2022-09-17T02:46:15;5.33;;;4.93;;
787;SDS011;16074;42.708;23.312;2022-09-17T02:49:05;4.90;;;4.50;;
787;SDS011;16074;42.708;23.312;2022-09-17T02:51:46;5.00;;;4.60;;
787;SDS011;16074;42.708;23.312;2022-09-17T02:54:24;4.40;;;4.00;;
787;SDS011;16074;42.708;23.312;2022-09-17T02:57:00;4.03;;;3.73;;
787;SDS011;16074;42.708;23.312;2022-09-17T02:59:38;4.03;;;3.73;;
787;SDS011;16074;42.708;23.312;2022-09-17T03:02:15;6.47;;;4.23;;
787;SDS011;16074;42.708;23.312;2022-09-17T03:04:49;4.73;;;4.30;;
787;SDS011;16074;42.708;23.312;2022-09-17T03:07:19;4.60;;;4.00;;
787;SDS011;16074;42.708;23.312;2022-09-17T03:09:49;5.13;;;4.63;;
787;SDS011;16074;42.708;23.312;2022-09-17T03:12:17;4.40;;;4.10;;
787;SDS011;16074;42.708;23.312;2022-09-17T03:14:46;4.00;;;3.73;;
787;SDS011;16074;42.708;23.312;2022-09-17T03:17:14;5.97;;;4.50;;
787;SDS011;16074;42.708;23.312;2022-09-17T03:19:42;4.10;;;3.80;;
787;SDS011;16074;42.708;23.312;2022-09-17T03:22:12;4.70;;;4.40;;
787;SDS011;16074;42.708;23.312;2022-09-17T03:24:40;4.70;;;4.30;;
787;SDS011;16074;42.708;23.312;2022-09-17T03:27:08;5.10;;;4.80;;
787;SDS011;16074;42.708;23.312;2022-09-17T03:29:36;5.00;;;4.60;;
787;SDS011;16074;42.708;23.312;2022-09-17T03:32:04;4.53;;;4.20;;
787;SDS011;16074;42.708;23.312;2022-09-17T03:34:34;5.40;;;4.93;;
787;SDS011;16074;42.708;23.312;2022-09-17T03:37:02;7.20;;;6.10;;
787;SDS011;16074;42.708;23.312;2022-09-17T03:39:31;10.73;;;7.23;;
787;SDS011;16074;42.708;23.312;2022-09-17T03:41:59;7.93;;;7.23;;
787;SDS011;16074;42.708;23.312;2022-09-17T03:44:28;32.47;;;26.63;;
787;SDS011;16074;42.708;23.312;2022-09-17T03:46:56;36.13;;;32.17;;
787;SDS011;16074;42.708;23.312;2022-09-17T03:49:24;26.57;;;21.13;;
787;SDS011;16074;42.708;23.312;2022-09-17T03:51:52;30.67;;;23.50;;
787;SDS011;16074;42.708;23.312;2022-09-17T03:54:20;29.17;;;21.00;;
787;SDS011;16074;42.708;23.312;2022-09-17T03:56:50;20.90;;;18.43;;
787;SDS011;16074;42.708;23.312;2022-09-17T03:59:18;23.10;;;16.60;;
787;SDS011;16074;42.708;23.312;2022-09-17T04:01:46;18.90;;;16.03;;
787;SDS011;16074;42.708;23.312;2022-09-17T04:04:14;21.43;;;15.73;;
787;SDS011;16074;42.708;23.312;2022-09-17T04:06:42;21.40;;;15.97;;
787;SDS011;16074;42.708;23.312;2022-09-17T04:09:11;16.93;;;14.90;;
787;SDS011;16074;42.708;23.312;2022-09-17T04:11:39;18.33;;;16.07;;
787;SDS011;16074;42.708;23.312;2022-09-17T04:14:08;18.80;;;15.50;;
787;SDS011;16074;42.708;23.312;2022-09-17T04:16:37;24.27;;;16.77;;
787;SDS011;16074;42.708;23.312;2022-09-17T04:19:05;17.80;;;14.30;;
787;SDS011;16074;42.708;23.312;2022-09-17T04:21:33;14.37;;;11.33;;
787;SDS011;16074;42.708;23.312;2022-09-17T04:24:01;11.67;;;8.40;;
787;SDS011;16074;42.708;23.312;2022-09-17T04:26:30;7.93;;;6.70;;
787;SDS011;16074;42.708;23.312;2022-09-17T04:28:58;10.00;;;6.40;;
787;SDS011;16074;42.708;23.312;2022-09-17T04:31:28;6.60;;;5.90;;
787;SDS011;16074;42.708;23.312;2022-09-17T04:33:56;6.07;;;5.57;;
787;SDS011;16074;42.708;23.312;2022-09-17T04:36:24;6.57;;;5.80;;
787;SDS011;16074;42.708;23.312;2022-09-17T04:38:52;6.30;;;5.80;;
787;SDS011;16074;42.708;23.312;2022-09-17T04:41:21;9.03;;;6.00;;
787;SDS011;16074;42.708;23.312;2022-09-17T04:43:49;6.57;;;6.00;;
787;SDS011;16074;42.708;23.312;2022-09-17T04:46:17;6.07;;;5.47;;
787;SDS011;16074;42.708;23.312;2022-09-17T04:48:46;6.37;;;5.77;;
787;SDS011;16074;42.708;23.312;2022-09-17T04:51:14;6.67;;;5.97;;
787;SDS011;16074;42.708;23.312;2022-09-17T04:53:43;6.10;;;5.50;;
787;SDS011;16074;42.708;23.312;2022-09-17T04:56:11;6.00;;;5.30;;
787;SDS011;16074;42.708;23.312;2022-09-17T04:58:39;5.43;;;5.03;;
787;SDS011;16074;42.708;23.312;2022-09-17T05:01:07;5.60;;;4.10;;
787;SDS011;16074;42.708;23.312;2022-09-17T05:03:36;4.90;;;4.40;;
787;SDS011;16074;42.708;23.312;2022-09-17T05:06:05;4.03;;;3.73;;
787;SDS011;16074;42.708;23.312;2022-09-17T05:08:34;4.00;;;3.50;;
787;SDS011;16074;42.708;23.312;2022-09-17T05:11:02;3.87;;;3.57;;
787;SDS011;16074;42.708;23.312;2022-09-17T05:13:30;4.03;;;3.63;;
787;SDS011;16074;42.708;23.312;2022-09-17T05:15:58;4.60;;;4.20;;
787;SDS011;16074;42.708;23.312;2022-09-17T05:18:27;4.60;;;4.00;;
787;SDS011;16074;42.708;23.312;2022-09-17T05:20:55;6.50;;;4.10;;
787;SDS011;16074;42.708;23.312;2022-09-17T05:23:24;6.37;;;4.13;;
787;SDS011;16074;42.708;23.312;2022-09-17T05:25:56;3.93;;;3.70;;
787;SDS011;16074;42.708;23.312;2022-09-17T05:28:25;4.20;;;3.80;;
787;SDS011;16074;42.708;23.312;2022-09-17T05:30:54;4.70;;;3.93;;
787;SDS011;16074;42.708;23.312;2022-09-17T05:33:25;5.50;;;3.90;;
787;SDS011;16074;42.708;23.312;2022-09-17T05:35:54;5.50;;;5.03;;
787;SDS011;16074;42.708;23.312;2022-09-17T05:38:22;4.90;;;4.60;;
787;SDS011;16074;42.708;23.312;2022-09-17T05:40:52;5.47;;;5.00;;
787;SDS011;16074;42.708;23.312;2022-09-17T05:43:20;5.77;;;3.70;;
787;SDS011;16074;42.708;23.312;2022-09-17T05:45:48;5.53;;;4.50;;
787;SDS011;16074;42.708;23.312;2022-09-17T05:48:16;6.23;;;4.37;;
787;SDS011;16074;42.708;23.312;2022-09-17T05:50:44;4.40;;;4.10;;
787;SDS011;16074;42.708;23.312;2022-09-17T05:53:13;3.87;;;3.40;;
787;SDS011;16074;42.708;23.312;2022-09-17T05:55:42;4.80;;;4.03;;
787;SDS011;16074;42.708;23.312;2022-09-17T05:58:12;5.63;;;3.70;;
787;SDS011;16074;42.708;23.312;2022-09-17T06:00:41;8.20;;;6.10;;
787;SDS011;16074;42.708;23.312;2022-09-17T06:03:10;6.47;;;5.87;;
787;SDS011;16074;42.708;23.312;2022-09-17T06:05:40;9.13;;;4.63;;
787;SDS011;16074;42.708;23.312;2022-09-17T06:08:08;8.50;;;5.60;;
787;SDS011;16074;42.708;23.312;2022-09-17T06:10:37;5.40;;;5.00;;
787;SDS011;16074;42.708;23.312;2022-09-17T06:13:05;5.67;;;5.27;;
787;SDS011;16074;42.708;23.312;2022-09-17T06:15:35;8.53;;;6.30;;
787;SDS011;16074;42.708;23.312;2022-09-17T06:18:03;6.70;;;4.90;;
787;SDS011;16074;42.708;23.312;2022-09-17T06:20:31;10.60;;;4.30;;
787;SDS011;16074;42.708;23.312;2022-09-17T06:22:59;5.50;;;4.90;;
787;SDS011;16074;42.708;23.312;2022-09-17T06:25:27;5.03;;;4.17;;
787;SDS011;16074;42.708;23.312;2022-09-17T06:27:57;4.43;;;4.03;;
787;SDS011;16074;42.708;23.312;2022-09-17T06:30:25;3.67;;;3.40;;
787;SDS011;16074;42.708;23.312;2022-09-17T06:32:55;3.57;;;3.27;;
787;SDS011;16074;42.708;23.312;2022-09-17T06:35:26;7.60;;;4.47;;
787;SDS011;16074;42.708;23.312;2022-09-17T06:37:54;4.67;;;4.37;;
787;SDS011;16074;42.708;23.312;2022-09-17T06:40:23;3.83;;;3.50;;
787;SDS011;16074;42.708;23.312;2022-09-17T06:42:55;4.93;;;4.27;;
787;SDS011;16074;42.708;23.312;2022-09-17T06:45:24;3.83;;;3.60;;
787;SDS011;16074;42.708;23.312;2022-09-17T06:47:52;3.90;;;3.60;;
787;SDS011;16074;42.708;23.312;2022-09-17T06:50:22;3.83;;;3.60;;
787;SDS011;16074;42.708;23.312;2022-09-17T06:52:51;4.10;;;3.90;;
787;SDS011;16074;42.708;23.312;2022-09-17T06:55:20;8.17;;;4.97;;
787;SDS011;16074;42.708;23.312;2022-09-17T06:57:48;5.80;;;4.20;;
787;SDS011;16074;42.708;23.312;2022-09-17T07:00:17;4.03;;;3.73;;
787;SDS011;16074;42.708;23.312;2022-09-17T07:02:53;3.97;;;3.77;;
787;SDS011;16074;42.708;23.312;2022-09-17T07:05:23;4.07;;;3.77;;
787;SDS011;16074;42.708;23.312;2022-09-17T07:07:52;6.10;;;5.60;;
787;SDS011;16074;42.708;23.312;2022-09-17T07:10:20;5.20;;;4.70;;
787;SDS011;16074;42.708;23.312;2022-09-17T07:12:49;4.83;;;4.43;;
787;SDS011;16074;42.708;23.312;2022-09-17T07:15:19;6.00;;;4.43;;
787;SDS011;16074;42.708;23.312;2022-09-17T07:17:47;5.87;;;4.10;;
787;SDS011;16074;42.708;23.312;2022-09-17T07:20:16;4.67;;;4.17;;
787;SDS011;16074;42.708;23.312;2022-09-17T07:22:45;4.77;;;4.30;;
787;SDS011;16074;42.708;23.312;2022-09-17T07:25:22;6.30;;;5.70;;
787;SDS011;16074;42.708;23.312;2022-09-17T07:27:52;5.60;;;5.10;;
787;SDS011;16074;42.708;23.312;2022-09-17T07:30:20;8.27;;;5.90;;
787;SDS011;16074;42.708;23.312;2022-09-17T07:32:49;6.70;;;5.00;;
787;SDS011;16074;42.708;23.312;2022-09-17T07:35:17;5.87;;;4.20;;
787;SDS011;16074;42.708;23.312;2022-09-17T07:37:46;4.70;;;4.30;;
787;SDS011;16074;42.708;23.312;2022-09-17T07:40:14;3.60;;;3.33;;
787;SDS011;16074;42.708;23.312;2022-09-17T07:42:43;4.03;;;3.63;;
787;SDS011;16074;42.708;23.312;2022-09-17T07:45:11;7.70;;;3.67;;
787;SDS011;16074;42.708;23.312;2022-09-17T07:47:39;4.53;;;4.13;;
787;SDS011;16074;42.708;23.312;2022-09-17T07:50:08;5.07;;;3.80;;
787;SDS011;16074;42.708;23.312;2022-09-17T07:52:37;7.13;;;4.20;;
787;SDS011;16074;42.708;23.312;2022-09-17T07:55:07;3.63;;;3.33;;
787;SDS011;16074;42.708;23.312;2022-09-17T07:57:36;5.53;;;3.37;;
787;SDS011;16074;42.708;23.312;2022-09-17T08:00:04;4.33;;;3.07;;
787;SDS011;16074;42.708;23.312;2022-09-17T08:02:37;4.50;;;3.80;;
787;SDS011;16074;42.708;23.312;2022-09-17T08:05:05;6.63;;;3.93;;
787;SDS011;16074;42.708;23.312;2022-09-17T08:07:33;3.23;;;3.00;;
787;SDS011;16074;42.708;23.312;2022-09-17T08:10:02;3.03;;;2.73;;
787;SDS011;16074;42.708;23.312;2022-09-17T08:12:32;3.33;;;3.03;;
787;SDS011;16074;42.708;23.312;2022-09-17T08:15:00;5.07;;;2.77;;
787;SDS011;16074;42.708;23.312;2022-09-17T08:17:28;2.73;;;2.57;;
787;SDS011;16074;42.708;23.312;2022-09-17T08:19:57;3.80;;;2.60;;
787;SDS011;16074;42.708;23.312;2022-09-17T08:22:25;3.47;;;2.50;;
787;SDS011;16074;42.708;23.312;2022-09-17T08:24:53;6.23;;;2.77;;
787;SDS011;16074;42.708;23.312;2022-09-17T08:27:21;3.30;;;2.73;;
787;SDS011;16074;42.708;23.312;2022-09-17T08:29:51;2.90;;;2.70;;
787;SDS011;16074;42.708;23.312;2022-09-17T08:32:19;4.13;;;3.23;;
787;SDS011;16074;42.708;23.312;2022-09-17T08:34:47;2.50;;;2.40;;
787;SDS011;16074;42.708;23.312;2022-09-17T08:37:15;2.07;;;1.97;;
787;SDS011;16074;42.708;23.312;2022-09-17T08:39:43;3.13;;;2.93;;
787;SDS011;16074;42.708;23.312;2022-09-17T08:42:14;3.17;;;2.47;;
787;SDS011;16074;42.708;23.312;2022-09-17T08:44:47;2.40;;;2.17;;
787;SDS011;16074;42.708;23.312;2022-09-17T08:47:21;2.10;;;2.00;;
787;SDS011;16074;42.708;23.312;2022-09-17T08:49:53;3.80;;;1.73;;
787;SDS011;16074;42.708;23.312;2022-09-17T08:55:29;2.10;;;1.97;;
787;SDS011;16074;42.708;23.312;2022-09-17T09:01:03;4.77;;;3.40;;
787;SDS011;16074;42.708;23.312;2022-09-17T09:03:43;2.73;;;2.63;;
787;SDS011;16074;42.708;23.312;2022-09-17T09:06:35;2.60;;;2.40;;
787;SDS011;16074;42.708;23.312;2022-09-17T09:09:10;2.93;;;2.63;;
787;SDS011;16074;42.708;23.312;2022-09-17T09:11:41;2.90;;;2.70;;
787;SDS011;16074;42.708;23.312;2022-09-17T09:14:11;2.60;;;2.40;;
787;SDS011;16074;42.708;23.312;2022-09-17T09:16:46;5.17;;;2.87;;
787;SDS011;16074;42.708;23.312;2022-09-17T09:19:22;3.10;;;2.90;;
787;SDS011;16074;42.708;23.312;2022-09-17T09:21:58;3.13;;;2.93;;
787;SDS011;16074;42.708;23.312;2022-09-17T09:24:33;3.03;;;2.83;;
787;SDS011;16074;42.708;23.312;2022-09-17T09:27:17;4.27;;;3.87;;
787;SDS011;16074;42.708;23.312;2022-09-17T09:29:55;3.33;;;3.00;;
787;SDS011;16074;42.708;23.312;2022-09-17T09:32:42;3.53;;;3.30;;
787;SDS011;16074;42.708;23.312;2022-09-17T09:35:22;4.53;;;3.33;;
787;SDS011;16074;42.708;23.312;2022-09-17T09:37:54;3.43;;;2.30;;
787;SDS011;16074;42.708;23.312;2022-09-17T09:40:30;3.50;;;3.30;;
787;SDS011;16074;42.708;23.312;2022-09-17T09:43:07;4.97;;;4.53;;
787;SDS011;16074;42.708;23.312;2022-09-17T09:45:55;5.27;;;3.83;;
787;SDS011;16074;42.708;23.312;2022-09-17T09:48:35;4.07;;;3.67;;
787;SDS011;16074;42.708;23.312;2022-09-17T09:51:11;3.60;;;3.30;;
787;SDS011;16074;42.708;23.312;2022-09-17T09:53:52;3.37;;;3.00;;
787;SDS011;16074;42.708;23.312;2022-09-17T09:56:37;4.80;;;4.13;;
787;SDS011;16074;42.708;23.312;2022-09-17T09:59:18;4.23;;;3.83;;
787;SDS011;16074;42.708;23.312;2022-09-17T10:01:46;3.47;;;3.17;;
787;SDS011;16074;42.708;23.312;2022-09-17T10:04:16;4.80;;;4.40;;
787;SDS011;16074;42.708;23.312;2022-09-17T10:06:48;4.77;;;4.20;;
787;SDS011;16074;42.708;23.312;2022-09-17T10:09:19;4.17;;;3.53;;
787;SDS011;16074;42.708;23.312;2022-09-17T10:11:58;3.13;;;2.83;;
787;SDS011;16074;42.708;23.312;2022-09-17T10:14:28;3.43;;;3.13;;
787;SDS011;16074;42.708;23.312;2022-09-17T10:17:14;4.07;;;3.17;;
787;SDS011;16074;42.708;23.312;2022-09-17T10:19:45;4.47;;;3.10;;
787;SDS011;16074;42.708;23.312;2022-09-17T10:22:37;2.97;;;2.77;;
787;SDS011;16074;42.708;23.312;2022-09-17T10:25:17;3.23;;;3.03;;
787;SDS011;16074;42.708;23.312;2022-09-17T10:27:54;4.13;;;3.83;;
787;SDS011;16074;42.708;23.312;2022-09-17T10:30:24;4.63;;;3.87;;
787;SDS011;16074;42.708;23.312;2022-09-17T10:33:15;4.00;;;3.70;;
787;SDS011;16074;42.708;23.312;2022-09-17T10:35:56;2.97;;;2.87;;
787;SDS011;16074;42.708;23.312;2022-09-17T10:38:29;4.13;;;3.83;;
787;SDS011;16074;42.708;23.312;2022-09-17T10:41:09;3.10;;;3.00;;
787;SDS011;16074;42.708;23.312;2022-09-17T10:43:42;3.53;;;3.13;;
787;SDS011;16074;42.708;23.312;2022-09-17T10:46:13;3.10;;;2.90;;
787;SDS011;16074;42.708;23.312;2022-09-17T10:48:44;4.00;;;3.77;;
787;SDS011;16074;42.708;23.312;2022-09-17T10:51:19;3.47;;;3.27;;
787;SDS011;16074;42.708;23.312;2022-09-17T10:53:57;3.40;;;3.20;;
787;SDS011;16074;42.708;23.312;2022-09-17T10:56:53;4.50;;;3.47;;
787;SDS011;16074;42.708;23.312;2022-09-17T10:59:44;3.70;;;3.40;;
787;SDS011;16074;42.708;23.312;2022-09-17T11:02:31;4.03;;;3.63;;
787;SDS011;16074;42.708;23.312;2022-09-17T11:05:29;3.47;;;3.27;;
787;SDS011;16074;42.708;23.312;2022-09-17T11:08:09;3.80;;;3.50;;
787;SDS011;16074;42.708;23.312;2022-09-17T11:10:46;3.70;;;3.40;;
787;SDS011;16074;42.708;23.312;2022-09-17T11:13:22;4.23;;;3.50;;
787;SDS011;16074;42.708;23.312;2022-09-17T11:16:11;6.20;;;5.00;;
787;SDS011;16074;42.708;23.312;2022-09-17T11:18:49;6.10;;;5.50;;
787;SDS011;16074;42.708;23.312;2022-09-17T11:21:29;5.87;;;5.20;;
787;SDS011;16074;42.708;23.312;2022-09-17T11:24:26;6.33;;;4.90;;
787;SDS011;16074;42.708;23.312;2022-09-17T11:27:14;4.40;;;4.00;;
787;SDS011;16074;42.708;23.312;2022-09-17T11:29:55;7.00;;;5.23;;
787;SDS011;16074;42.708;23.312;2022-09-17T11:32:38;3.90;;;3.53;;
787;SDS011;16074;42.708;23.312;2022-09-17T11:35:18;6.80;;;3.23;;
787;SDS011;16074;42.708;23.312;2022-09-17T11:37:51;2.90;;;2.70;;
787;SDS011;16074;42.708;23.312;2022-09-17T11:40:30;4.63;;;2.63;;
787;SDS011;16074;42.708;23.312;2022-09-17T11:43:06;4.07;;;3.13;;
787;SDS011;16074;42.708;23.312;2022-09-17T11:45:46;3.47;;;3.20;;
787;SDS011;16074;42.708;23.312;2022-09-17T11:48:23;2.70;;;2.50;;
787;SDS011;16074;42.708;23.312;2022-09-17T11:50:59;6.03;;;2.80;;
787;SDS011;16074;42.708;23.312;2022-09-17T11:53:35;5.30;;;3.47;;
787;SDS011;16074;42.708;23.312;2022-09-17T11:56:10;2.77;;;2.67;;
787;SDS011;16074;42.708;23.312;2022-09-17T11:58:47;3.30;;;3.10;;
787;SDS011;16074;42.708;23.312;2022-09-17T12:01:19;3.83;;;3.63;;
787;SDS011;16074;42.708;23.312;2022-09-17T12:03:54;3.33;;;2.80;;
787;SDS011;16074;42.708;23.312;2022-09-17T12:06:30;5.80;;;2.20;;
787;SDS011;16074;42.708;23.312;2022-09-17T12:09:08;2.00;;;1.90;;
787;SDS011;16074;42.708;23.312;2022-09-17T12:11:40;2.30;;;2.10;;
787;SDS011;16074;42.708;23.312;2022-09-17T12:14:17;2.73;;;2.53;;
787;SDS011;16074;42.708;23.312;2022-09-17T12:16:51;2.93;;;2.73;;
787;SDS011;16074;42.708;23.312;2022-09-17T12:19:26;3.93;;;3.30;;
787;SDS011;16074;42.708;23.312;2022-09-17T12:22:03;2.73;;;2.53;;
787;SDS011;16074;42.708;23.312;2022-09-17T12:24:36;5.93;;;3.27;;
787;SDS011;16074;42.708;23.312;2022-09-17T12:27:11;2.53;;;2.33;;
787;SDS011;16074;42.708;23.312;2022-09-17T12:30:00;3.07;;;2.87;;
787;SDS011;16074;42.708;23.312;2022-09-17T12:35:29;2.50;;;2.30;;
787;SDS011;16074;42.708;23.312;2022-09-17T12:38:35;3.17;;;2.90;;
787;SDS011;16074;42.708;23.312;2022-09-17T12:41:19;1.83;;;1.73;;
787;SDS011;16074;42.708;23.312;2022-09-17T12:43:57;4.23;;;1.97;;
787;SDS011;16074;42.708;23.312;2022-09-17T12:46:43;2.43;;;2.20;;
787;SDS011;16074;42.708;23.312;2022-09-17T12:52:21;2.90;;;2.70;;
787;SDS011;16074;42.708;23.312;2022-09-17T12:55:18;6.07;;;3.00;;
787;SDS011;16074;42.708;23.312;2022-09-17T12:57:59;4.90;;;4.60;;
787;SDS011;16074;42.708;23.312;2022-09-17T13:00:37;4.50;;;4.10;;
787;SDS011;16074;42.708;23.312;2022-09-17T13:03:12;5.03;;;4.37;;
787;SDS011;16074;42.708;23.312;2022-09-17T13:06:10;5.63;;;5.20;;
787;SDS011;16074;42.708;23.312;2022-09-17T13:09:24;4.87;;;4.53;;
787;SDS011;16074;42.708;23.312;2022-09-17T13:12:07;5.27;;;4.73;;
787;SDS011;16074;42.708;23.312;2022-09-17T13:14:53;5.43;;;4.90;;
787;SDS011;16074;42.708;23.312;2022-09-17T13:17:41;5.03;;;4.70;;
787;SDS011;16074;42.708;23.312;2022-09-17T13:20:37;4.90;;;4.60;;
787;SDS011;16074;42.708;23.312;2022-09-17T13:23:10;5.67;;;5.17;;
787;SDS011;16074;42.708;23.312;2022-09-17T13:25:48;5.27;;;4.77;;
787;SDS011;16074;42.708;23.312;2022-09-17T13:28:18;7.20;;;5.60;;
787;SDS011;16074;42.708;23.312;2022-09-17T13:30:56;6.13;;;5.63;;
787;SDS011;16074;42.708;23.312;2022-09-17T13:36:37;6.77;;;6.27;;
787;SDS011;16074;42.708;23.312;2022-09-17T13:39:08;8.90;;;6.63;;
787;SDS011;16074;42.708;23.312;2022-09-17T13:41:38;5.00;;;4.60;;
787;SDS011;16074;42.708;23.312;2022-09-17T13:44:09;3.80;;;3.60;;
787;SDS011;16074;42.708;23.312;2022-09-17T13:46:38;5.13;;;4.20;;
787;SDS011;16074;42.708;23.312;2022-09-17T13:49:10;4.80;;;4.50;;
787;SDS011;16074;42.708;23.312;2022-09-17T13:51:49;10.53;;;9.53;;
787;SDS011;16074;42.708;23.312;2022-09-17T13:54:20;4.67;;;4.27;;
787;SDS011;16074;42.708;23.312;2022-09-17T13:59:36;6.00;;;4.97;;
787;SDS011;16074;42.708;23.312;2022-09-17T14:08:05;7.67;;;5.43;;
787;SDS011;16074;42.708;23.312;2022-09-17T14:10:41;6.70;;;5.10;;
787;SDS011;16074;42.708;23.312;2022-09-17T14:13:23;5.50;;;5.00;;
787;SDS011;16074;42.708;23.312;2022-09-17T14:19:16;6.20;;;5.80;;
787;SDS011;16074;42.708;23.312;2022-09-17T14:21:56;6.20;;;3.93;;
787;SDS011;16074;42.708;23.312;2022-09-17T14:24:33;5.20;;;4.70;;
787;SDS011;16074;42.708;23.312;2022-09-17T14:27:06;3.50;;;3.20;;
787;SDS011;16074;42.708;23.312;2022-09-17T14:29:48;3.87;;;3.57;;
787;SDS011;16074;42.708;23.312;2022-09-17T14:32:26;4.70;;;4.23;;
787;SDS011;16074;42.708;23.312;2022-09-17T14:34:59;3.60;;;3.40;;
787;SDS011;16074;42.708;23.312;2022-09-17T14:37:29;3.90;;;3.50;;
787;SDS011;16074;42.708;23.312;2022-09-17T14:40:04;3.97;;;3.77;;
787;SDS011;16074;42.708;23.312;2022-09-17T14:42:36;4.80;;;4.37;;
787;SDS011;16074;42.708;23.312;2022-09-17T14:45:06;9.37;;;7.40;;
787;SDS011;16074;42.708;23.312;2022-09-17T14:47:42;4.83;;;4.40;;
787;SDS011;16074;42.708;23.312;2022-09-17T14:50:18;3.50;;;3.17;;
787;SDS011;16074;42.708;23.312;2022-09-17T14:52:48;3.13;;;2.93;;
787;SDS011;16074;42.708;23.312;2022-09-17T14:55:19;7.13;;;3.63;;
787;SDS011;16074;42.708;23.312;2022-09-17T14:57:50;4.00;;;3.67;;
787;SDS011;16074;42.708;23.312;2022-09-17T15:00:21;3.53;;;3.33;;
787;SDS011;16074;42.708;23.312;2022-09-17T15:02:51;5.00;;;4.60;;
787;SDS011;16074;42.708;23.312;2022-09-17T15:05:23;4.20;;;3.90;;
787;SDS011;16074;42.708;23.312;2022-09-17T15:08:10;5.67;;;5.27;;
787;SDS011;16074;42.708;23.312;2022-09-17T15:10:51;4.00;;;3.70;;
787;SDS011;16074;42.708;23.312;2022-09-17T15:13:22;4.20;;;3.87;;
787;SDS011;16074;42.708;23.312;2022-09-17T15:15:59;3.97;;;3.67;;
787;SDS011;16074;42.708;23.312;2022-09-17T15:18:37;4.00;;;3.40;;
787;SDS011;16074;42.708;23.312;2022-09-17T15:21:20;4.20;;;3.80;;
787;SDS011;16074;42.708;23.312;2022-09-17T15:23:59;3.13;;;2.83;;
787;SDS011;16074;42.708;23.312;2022-09-17T15:26:36;6.23;;;3.23;;
787;SDS011;16074;42.708;23.312;2022-09-17T15:29:09;3.67;;;3.10;;
787;SDS011;16074;42.708;23.312;2022-09-17T15:31:38;3.27;;;2.73;;
787;SDS011;16074;42.708;23.312;2022-09-17T15:34:09;3.60;;;3.30;;
787;SDS011;16074;42.708;23.312;2022-09-17T15:36:38;2.60;;;2.50;;
787;SDS011;16074;42.708;23.312;2022-09-17T15:41:57;7.60;;;6.93;;
787;SDS011;16074;42.708;23.312;2022-09-17T15:44:25;6.10;;;5.37;;
787;SDS011;16074;42.708;23.312;2022-09-17T15:50:12;3.77;;;3.47;;
787;SDS011;16074;42.708;23.312;2022-09-17T15:52:42;3.43;;;3.17;;
787;SDS011;16074;42.708;23.312;2022-09-17T15:55:31;4.53;;;3.90;;
787;SDS011;16074;42.708;23.312;2022-09-17T15:58:03;5.37;;;4.53;;
787;SDS011;16074;42.708;23.312;2022-09-17T16:00:32;9.53;;;8.70;;
787;SDS011;16074;42.708;23.312;2022-09-17T16:03:34;8.20;;;7.57;;
787;SDS011;16074;42.708;23.312;2022-09-17T16:06:46;7.13;;;6.53;;
787;SDS011;16074;42.708;23.312;2022-09-17T16:09:36;6.17;;;5.67;;
787;SDS011;16074;42.708;23.312;2022-09-17T16:12:07;5.17;;;4.87;;
787;SDS011;16074;42.708;23.312;2022-09-17T16:14:43;3.50;;;2.77;;
787;SDS011;16074;42.708;23.312;2022-09-17T16:17:26;3.30;;;2.30;;